Time;durP1;ratioP1;P1;durP2;ratioP2;P2;SDS_P1;SDS_P2;PMS_P1;PMS_P2;Temp;Humidity;BMP_temperature;BMP_pressure;BME280_temperature;BME280_humidity;BME280_pressure;Samples;Min_cycle;Max_cycle;Signal;HPM_P1;HPM_P2
2023/07/23 00:01:50;;;;;;;7.40;5.50;;;;;;;14.97;73.93;96703.13;108228;1279;22647;-77
2023/07/23 00:04:21;;;;;;;6.70;5.00;;;;;;;14.93;73.78;96703.91;108194;1279;22544;-77
2023/07/23 00:06:52;;;;;;;11.40;6.20;;;;;;;14.86;73.67;96703.44;108237;1279;22559;-77
2023/07/23 00:09:23;;;;;;;8.80;5.80;;;;;;;14.77;73.80;96702.25;108249;1275;24248;-77
2023/07/23 00:11:54;;;;;;;6.70;5.50;;;;;;;14.82;74.00;96700.31;108206;1279;27490;-77
2023/07/23 00:14:26;;;;;;;6.80;5.10;;;;;;;14.89;74.08;96700.61;108190;1279;22539;-77
2023/07/23 00:16:59;;;;;;;6.20;5.60;;;;;;;14.93;73.99;96701.73;108224;1279;25422;-77
2023/07/23 00:19:31;;;;;;;8.40;5.80;;;;;;;14.98;73.98;96704.52;108223;1279;25338;-77
2023/07/23 00:22:04;;;;;;;14.00;7.10;;;;;;;15.00;73.86;96706.15;108200;1277;22563;-77
2023/07/23 00:24:35;;;;;;;9.70;6.20;;;;;;;14.91;73.65;96703.81;108194;1279;22543;-77
2023/07/23 00:27:10;;;;;;;8.10;5.70;;;;;;;14.75;73.55;96703.84;108231;1273;24227;-77
2023/07/23 00:29:44;;;;;;;10.50;5.80;;;;;;;14.62;73.58;96702.83;108244;1279;25272;-77
2023/07/23 00:32:15;;;;;;;8.70;5.00;;;;;;;14.47;73.72;96699.89;108226;1279;22609;-77
2023/07/23 00:34:48;;;;;;;7.30;5.60;;;;;;;14.38;74.04;96699.60;108229;1278;22539;-77
2023/07/23 00:37:19;;;;;;;11.90;6.10;;;;;;;14.31;74.10;96698.14;108209;1278;24218;-77
2023/07/23 00:39:50;;;;;;;7.60;5.30;;;;;;;14.25;74.27;96699.39;108257;1280;22586;-77
2023/07/23 00:42:22;;;;;;;12.50;6.70;;;;;;;14.25;74.49;96699.55;108191;1280;22520;-77
2023/07/23 00:44:53;;;;;;;13.30;6.90;;;;;;;14.15;74.48;96699.90;108249;1257;22525;-77
2023/07/23 00:47:24;;;;;;;9.80;7.00;;;;;;;14.11;74.68;96696.52;108212;1279;22616;-77
2023/07/23 00:49:56;;;;;;;12.70;7.20;;;;;;;14.08;75.02;96691.05;108266;1279;23053;-77
2023/07/23 00:52:27;;;;;;;10.30;6.40;;;;;;;14.07;75.09;96693.45;108216;1280;23321;-77
2023/07/23 00:54:58;;;;;;;11.50;7.10;;;;;;;14.10;75.29;96692.49;108242;1273;22534;-77
2023/07/23 00:57:29;;;;;;;17.30;8.90;;;;;;;14.12;75.26;96692.89;108202;1276;22523;-77
2023/07/23 01:00:00;;;;;;;22.20;10.00;;;;;;;14.12;75.34;96693.67;108209;1279;22556;-77
2023/07/23 01:02:32;;;;;;;19.50;9.50;;;;;;;14.12;75.24;96692.14;108230;1272;25284;-77
2023/07/23 01:05:07;;;;;;;12.70;7.20;;;;;;;14.15;75.31;96697.87;108236;1276;23129;-77
2023/07/23 01:07:45;;;;;;;7.40;4.90;;;;;;;14.17;75.25;96698.29;108251;1272;22559;-77
2023/07/23 01:10:19;;;;;;;7.80;6.00;;;;;;;14.20;75.32;96699.10;108221;1279;25025;-77
2023/07/23 01:12:51;;;;;;;14.30;7.30;;;;;;;14.23;75.32;96700.23;108212;1277;22535;-77
2023/07/23 01:15:22;;;;;;;11.30;6.20;;;;;;;14.29;75.37;96694.64;108258;1279;22531;-77
2023/07/23 01:17:54;;;;;;;9.50;5.90;;;;;;;14.37;75.36;96694.97;108345;1278;25263;-77
2023/07/23 01:20:26;;;;;;;8.90;6.40;;;;;;;14.46;75.35;96693.60;108223;1276;22547;-77
2023/07/23 01:23:00;;;;;;;9.00;6.20;;;;;;;14.54;75.24;96688.31;108202;1279;22540;-77
2023/07/23 01:25:31;;;;;;;7.10;5.30;;;;;;;14.62;75.07;96687.81;108171;1279;22868;-77
2023/07/23 01:28:03;;;;;;;9.30;5.70;;;;;;;14.65;74.92;96687.91;108221;1279;22540;-77
2023/07/23 01:30:34;;;;;;;8.10;5.60;;;;;;;14.69;74.99;96683.77;108151;1279;22540;-77
2023/07/23 01:33:08;;;;;;;9.00;5.90;;;;;;;14.72;74.83;96677.98;108154;1279;23552;-77
2023/07/23 01:35:40;;;;;;;11.00;6.60;;;;;;;14.74;74.74;96677.07;108225;1276;24226;-77
2023/07/23 01:38:15;;;;;;;8.00;6.20;;;;;;;14.77;74.59;96679.73;108200;1280;23826;-77
2023/07/23 01:40:48;;;;;;;8.80;5.20;;;;;;;14.80;74.35;96675.82;108214;1279;23958;-77
2023/07/23 01:43:23;;;;;;;6.80;5.40;;;;;;;14.88;74.18;96680.06;108173;1279;22540;-77
2023/07/23 01:45:54;;;;;;;8.20;5.40;;;;;;;14.93;73.94;96674.71;108219;1279;22540;-77
2023/07/23 01:48:26;;;;;;;5.80;4.90;;;;;;;14.98;73.75;96671.76;108236;1279;22539;-77
2023/07/23 01:50:57;;;;;;;8.00;5.20;;;;;;;15.01;73.61;96671.67;108244;1279;24401;-77
2023/07/23 01:53:29;;;;;;;7.80;5.30;;;;;;;15.04;73.47;96676.45;108175;1279;22550;-77
2023/07/23 01:56:01;;;;;;;8.40;5.30;;;;;;;15.04;73.33;96675.80;108242;1279;22518;-77
2023/07/23 01:58:31;;;;;;;9.40;5.70;;;;;;;15.04;73.21;96678.06;108207;1279;22566;-77
2023/07/23 02:01:05;;;;;;;8.70;5.30;;;;;;;15.05;73.07;96680.48;108218;1273;22591;-77
2023/07/23 02:03:41;;;;;;;7.60;5.60;;;;;;;15.07;73.06;96682.28;108214;1276;22548;-77
2023/07/23 02:06:12;;;;;;;9.10;5.90;;;;;;;15.07;72.89;96681.58;108224;1277;24239;-77
2023/07/23 02:08:45;;;;;;;8.10;5.60;;;;;;;15.05;72.82;96682.58;108179;1272;24205;-77
2023/07/23 02:11:18;;;;;;;8.30;5.80;;;;;;;15.01;72.74;96686.96;108248;1279;22851;-77
2023/07/23 02:13:49;;;;;;;11.70;6.90;;;;;;;14.98;72.80;96684.41;108176;1266;22553;-77
2023/07/23 02:16:21;;;;;;;6.30;5.10;;;;;;;14.98;72.78;96685.55;108231;1279;22535;-77
2023/07/23 02:18:52;;;;;;;6.60;5.40;;;;;;;14.99;72.83;96685.42;108187;1279;23005;-77
2023/07/23 02:21:23;;;;;;;8.20;5.50;;;;;;;15.01;72.70;96681.41;108221;1271;22552;-77
2023/07/23 02:23:54;;;;;;;9.20;6.10;;;;;;;15.01;72.66;96690.20;108235;1279;23190;-77
2023/07/23 02:26:25;;;;;;;12.30;7.00;;;;;;;15.03;72.52;96684.55;108214;1274;22551;-77
2023/07/23 02:28:59;;;;;;;7.50;5.70;;;;;;;15.04;72.43;96692.70;108199;1273;23006;-77
2023/07/23 02:31:30;;;;;;;7.20;5.20;;;;;;;15.04;72.32;96690.28;108178;1277;23203;-77
2023/07/23 02:34:01;;;;;;;7.70;5.40;;;;;;;15.03;72.23;96694.05;108175;1279;23333;-78
2023/07/23 02:36:33;;;;;;;8.20;5.60;;;;;;;15.01;72.12;96693.02;108220;1279;22529;-77
2023/07/23 02:39:04;;;;;;;9.20;6.50;;;;;;;15.00;72.00;96697.61;108174;1276;22533;-78
2023/07/23 02:41:35;;;;;;;7.30;5.00;;;;;;;14.98;72.15;96698.04;108202;1279;22548;-77
2023/07/23 02:44:06;;;;;;;7.70;5.20;;;;;;;14.97;72.11;96698.83;108135;1279;22546;-77
2023/07/23 02:46:40;;;;;;;6.80;5.00;;;;;;;14.96;71.96;96695.67;108222;1279;22552;-77
2023/07/23 02:49:21;;;;;;;7.50;4.90;;;;;;;14.93;71.89;96696.60;108175;1273;22528;-77
2023/07/23 02:51:52;;;;;;;;;;;;;;;14.89;71.92;96693.32;108219;1279;22532;-77
2023/07/23 02:54:23;;;;;;;6.50;5.10;;;;;;;14.86;71.95;96690.13;108134;1272;22526;-77
2023/07/23 02:56:54;;;;;;;7.40;5.60;;;;;;;14.85;71.92;96690.16;108219;1280;22560;-77
2023/07/23 02:59:26;;;;;;;7.80;5.30;;;;;;;14.83;71.97;96691.69;108188;1273;24401;-78
2023/07/23 03:01:57;;;;;;;7.60;5.50;;;;;;;14.83;71.92;96691.71;108179;1277;22516;-77
2023/07/23 03:04:29;;;;;;;7.20;4.90;;;;;;;14.80;71.97;96691.58;108216;1279;23474;-77
2023/07/23 03:07:00;;;;;;;5.60;5.00;;;;;;;14.78;72.03;96689.55;108215;1279;22630;-77
2023/07/23 03:09:31;;;;;;;7.30;5.10;;;;;;;14.72;72.04;96691.00;108180;1277;22551;-77
2023/07/23 03:12:02;;;;;;;7.30;5.00;;;;;;;14.68;72.06;96691.10;108166;1279;22550;-78
2023/07/23 03:14:34;;;;;;;6.60;4.90;;;;;;;14.65;72.20;96686.01;108205;1279;22535;-77
2023/07/23 03:17:05;;;;;;;5.90;4.60;;;;;;;14.65;72.20;96690.17;108175;1279;25544;-77
2023/07/23 03:19:42;;;;;;;5.80;4.90;;;;;;;14.66;72.25;96689.81;108169;1273;22553;-77
2023/07/23 03:22:16;;;;;;;6.40;4.70;;;;;;;14.69;72.20;96690.02;108211;1279;22529;-78
2023/07/23 03:24:48;;;;;;;7.90;5.50;;;;;;;14.71;72.13;96687.07;108206;1273;22526;-77
2023/07/23 03:27:21;;;;;;;5.90;4.80;;;;;;;14.74;72.21;96689.20;108174;1277;22522;-77
2023/07/23 03:29:52;;;;;;;6.80;4.60;;;;;;;14.76;72.03;96684.65;108175;1279;22534;-78
2023/07/23 03:32:24;;;;;;;6.60;5.00;;;;;;;14.79;72.02;96687.05;108165;1273;22525;-77
2023/07/23 03:34:55;;;;;;;7.00;5.00;;;;;;;14.85;71.94;96688.78;108149;1279;22537;-78
2023/07/23 03:37:26;;;;;;;7.10;4.80;;;;;;;14.89;71.86;96687.35;108171;1273;22534;-78
2023/07/23 03:39:57;;;;;;;9.60;5.60;;;;;;;14.93;71.83;96692.23;108180;1279;25345;-77
2023/07/23 03:42:28;;;;;;;7.00;5.60;;;;;;;14.95;71.75;96695.83;108185;1274;22528;-77
2023/07/23 03:44:59;;;;;;;6.40;4.50;;;;;;;14.97;71.65;96691.44;108227;1279;22531;-77
2023/07/23 03:47:31;;;;;;;6.40;4.90;;;;;;;14.98;71.54;96691.66;108206;1278;25274;-78
2023/07/23 03:50:02;;;;;;;6.70;4.70;;;;;;;15.00;71.62;96691.84;108216;1279;22537;-78
2023/07/23 03:52:33;;;;;;;7.20;4.40;;;;;;;15.01;71.61;96691.48;108164;1274;22561;-77
2023/07/23 03:55:05;;;;;;;6.10;4.70;;;;;;;15.01;71.60;96691.59;108208;1279;24316;-77
2023/07/23 03:57:36;;;;;;;5.40;4.40;;;;;;;15.03;71.45;96691.88;108234;1273;22552;-77
2023/07/23 04:00:13;;;;;;;6.70;4.80;;;;;;;15.05;71.39;96684.60;108213;1277;22991;-77
2023/07/23 04:02:46;;;;;;;5.60;3.90;;;;;;;15.08;71.43;96689.52;108217;1279;22521;-77
2023/07/23 04:05:17;;;;;;;6.40;4.80;;;;;;;15.10;71.29;96687.83;108198;1279;25330;-77
2023/07/23 04:07:48;;;;;;;5.70;4.50;;;;;;;15.15;71.20;96691.58;108185;1276;25367;-77
2023/07/23 04:10:20;;;;;;;5.70;4.50;;;;;;;15.19;71.21;96689.88;108223;1277;23857;-77
2023/07/23 04:12:52;;;;;;;6.10;4.70;;;;;;;15.24;71.22;96690.56;108139;1279;22554;-77
2023/07/23 04:15:23;;;;;;;5.60;4.50;;;;;;;15.26;71.07;96689.05;108211;1279;22526;-77
2023/07/23 04:17:54;;;;;;;7.30;4.60;;;;;;;15.30;70.97;96691.25;108206;1279;25326;-77
2023/07/23 04:20:25;;;;;;;6.90;4.70;;;;;;;15.34;70.91;96693.23;108226;1279;25288;-77
2023/07/23 04:22:56;;;;;;;6.40;4.70;;;;;;;15.38;70.86;96693.58;108199;1279;22649;-77
2023/07/23 04:25:27;;;;;;;7.60;4.90;;;;;;;15.42;70.79;96694.38;108178;1279;22539;-77
2023/07/23 04:28:01;;;;;;;6.10;4.70;;;;;;;15.44;70.69;96698.09;108195;1279;24346;-77
2023/07/23 04:30:34;;;;;;;6.90;4.30;;;;;;;15.49;70.63;96699.48;108192;1273;22608;-77
2023/07/23 04:33:05;;;;;;;5.50;4.50;;;;;;;15.55;70.67;96704.56;108150;1279;22637;-77
2023/07/23 04:35:36;;;;;;;8.80;4.50;;;;;;;15.60;70.58;96700.75;108195;1279;22590;-77
2023/07/23 04:38:10;;;;;;;5.50;4.60;;;;;;;15.63;70.42;96699.20;108175;1271;22673;-77
2023/07/23 04:40:48;;;;;;;5.80;4.40;;;;;;;15.67;70.39;96696.88;108210;1276;22552;-77
2023/07/23 04:43:19;;;;;;;8.10;4.60;;;;;;;15.71;70.04;96700.19;108142;1279;22630;-77
2023/07/23 04:45:50;;;;;;;5.50;4.30;;;;;;;15.77;70.16;96699.30;108051;1277;194254;-76
2023/07/23 04:48:21;;;;;;;8.10;4.90;;;;;;;15.81;70.04;96697.21;108228;1272;22544;-77
2023/07/23 04:51:02;;;;;;;7.00;4.60;;;;;;;15.81;69.89;96694.10;108223;1272;22531;-77
2023/07/23 04:53:33;;;;;;;5.10;4.30;;;;;;;15.82;69.91;96693.83;108219;1279;22513;-77
2023/07/23 04:56:08;;;;;;;6.10;4.60;;;;;;;15.85;70.13;96694.11;108183;1279;22562;-77
2023/07/23 04:58:41;;;;;;;6.40;4.60;;;;;;;15.90;70.04;96692.78;108186;1279;22522;-77
2023/07/23 05:01:13;;;;;;;5.40;4.20;;;;;;;15.95;70.13;96692.95;108216;1279;22516;-77
2023/07/23 05:03:45;;;;;;;7.20;5.00;;;;;;;16.06;70.35;96689.23;108184;1273;25298;-77
2023/07/23 05:06:16;;;;;;;4.70;4.20;;;;;;;16.24;70.20;96692.52;108189;1272;22532;-77
2023/07/23 05:08:47;;;;;;;5.20;4.30;;;;;;;16.47;70.30;96685.05;108203;1273;22554;-77
2023/07/23 05:11:18;;;;;;;6.30;4.30;;;;;;;17.09;70.91;96681.24;108204;1279;25328;-77
2023/07/23 05:13:49;;;;;;;6.80;4.20;;;;;;;17.97;70.08;96679.18;108150;1279;26475;-77
2023/07/23 05:16:24;;;;;;;5.30;4.30;;;;;;;18.78;68.60;96677.81;108206;1279;25408;-77
2023/07/23 05:18:56;;;;;;;4.90;3.80;;;;;;;19.41;67.51;96683.33;108165;1271;23926;-77
2023/07/23 05:21:30;;;;;;;4.50;3.80;;;;;;;20.02;66.29;96684.70;108192;1279;22559;-77
2023/07/23 05:24:01;;;;;;;4.00;3.60;;;;;;;20.59;65.39;96686.81;108166;1276;22522;-77
2023/07/23 05:26:35;;;;;;;4.90;3.80;;;;;;;21.09;64.08;96685.47;108191;1279;22520;-77
2023/07/23 05:29:06;;;;;;;4.50;3.70;;;;;;;21.40;63.05;96688.24;108162;1279;26602;-77
2023/07/23 05:31:39;;;;;;;5.10;3.90;;;;;;;21.65;61.96;96688.80;108213;1279;22541;-77
2023/07/23 05:34:11;;;;;;;5.60;4.10;;;;;;;21.83;60.95;96688.00;108186;1279;22523;-77
2023/07/23 05:36:42;;;;;;;6.00;3.70;;;;;;;22.08;60.24;96687.30;108197;1279;22559;-77
2023/07/23 05:39:15;;;;;;;4.20;3.50;;;;;;;22.25;59.48;96686.02;108156;1279;22655;-77
2023/07/23 05:41:46;;;;;;;4.00;3.60;;;;;;;22.20;58.71;96687.81;108181;1277;22518;-76
2023/07/23 05:44:18;;;;;;;5.80;3.90;;;;;;;22.28;58.39;96685.23;108159;1279;26474;-77
2023/07/23 05:46:50;;;;;;;5.00;3.40;;;;;;;22.32;57.75;96686.92;108233;1279;22537;-76
2023/07/23 05:49:21;;;;;;;5.70;3.60;;;;;;;22.46;57.50;96686.48;108144;1279;24410;-76
2023/07/23 05:51:53;;;;;;;4.70;3.40;;;;;;;22.70;57.15;96683.73;108189;1279;25297;-76
2023/07/23 05:54:24;;;;;;;5.10;4.00;;;;;;;22.97;57.11;96687.63;108121;1279;22658;-76
2023/07/23 05:56:57;;;;;;;4.10;3.40;;;;;;;23.17;56.39;96689.55;108159;1272;24212;-76
2023/07/23 05:59:29;;;;;;;6.30;3.90;;;;;;;23.29;56.15;96692.34;108177;1279;25243;-77
2023/07/23 06:02:01;;;;;;;5.30;3.70;;;;;;;23.32;55.71;96693.56;108168;1279;22555;-76
2023/07/23 06:04:32;;;;;;;5.10;3.70;;;;;;;23.50;55.29;96688.93;108160;1279;24254;-76
2023/07/23 06:07:04;;;;;;;5.30;3.80;;;;;;;23.58;54.91;96691.02;108160;1279;22551;-77
2023/07/23 06:09:36;;;;;;;3.70;3.30;;;;;;;23.50;54.22;96687.48;108180;1279;22525;-76
2023/07/23 06:12:12;;;;;;;4.20;3.30;;;;;;;23.56;54.54;96688.66;108143;1279;22484;-77
2023/07/23 06:14:44;;;;;;;4.50;3.20;;;;;;;23.81;54.04;96692.04;108182;1279;22534;-77
2023/07/23 06:17:15;;;;;;;5.30;3.40;;;;;;;23.92;53.82;96688.91;108204;1279;22987;-77
2023/07/23 06:19:49;;;;;;;4.80;3.40;;;;;;;23.73;53.08;96692.46;108166;1271;22522;-76
2023/07/23 06:22:21;;;;;;;4.50;3.90;;;;;;;23.33;53.01;96690.79;108176;1279;22546;-77
2023/07/23 06:24:52;;;;;;;4.20;3.10;;;;;;;22.81;53.37;96689.83;108192;1279;22532;-76
2023/07/23 06:27:24;;;;;;;5.00;3.80;;;;;;;22.43;53.45;96683.23;108178;1277;25260;-77
2023/07/23 06:29:55;;;;;;;4.80;3.50;;;;;;;22.10;53.90;96684.88;108195;1271;25379;-77
2023/07/23 06:32:26;;;;;;;6.30;3.70;;;;;;;21.90;54.41;96688.94;108173;1279;29379;-76
2023/07/23 06:34:57;;;;;;;5.00;3.60;;;;;;;21.69;54.45;96688.83;108216;1272;25209;-77
2023/07/23 06:37:28;;;;;;;5.80;3.80;;;;;;;21.34;54.77;96688.94;108188;1279;22561;-76
2023/07/23 06:40:00;;;;;;;6.60;4.10;;;;;;;21.06;55.33;96682.55;108195;1271;22524;-76
2023/07/23 06:42:31;;;;;;;5.40;3.90;;;;;;;20.75;55.62;96682.98;108161;1257;22554;-77
2023/07/23 06:45:03;;;;;;;5.70;3.60;;;;;;;20.49;56.25;96682.46;108179;1277;22576;-76
2023/07/23 06:47:37;;;;;;;5.80;4.10;;;;;;;20.44;56.84;96682.09;108155;1272;22524;-77
2023/07/23 06:50:10;;;;;;;5.20;4.00;;;;;;;20.78;57.64;96680.48;108226;1279;22548;-77
2023/07/23 06:52:46;;;;;;;4.10;3.50;;;;;;;21.29;57.69;96682.17;108157;1272;27863;-77
2023/07/23 06:55:19;;;;;;;4.30;3.50;;;;;;;21.65;57.66;96679.77;108164;1279;22630;-77
2023/07/23 06:57:50;;;;;;;6.10;3.50;;;;;;;21.69;56.93;96672.94;108171;1272;22539;-77
2023/07/23 07:00:22;;;;;;;6.00;3.60;;;;;;;21.68;57.08;96671.77;108182;1279;22539;-77
2023/07/23 07:02:55;;;;;;;5.00;3.50;;;;;;;21.65;56.70;96678.16;108163;1272;22517;-77
2023/07/23 07:05:27;;;;;;;6.00;3.80;;;;;;;21.58;56.85;96674.84;108208;1279;22521;-77
2023/07/23 07:07:59;;;;;;;4.70;3.60;;;;;;;21.95;57.46;96672.57;108168;1277;22645;-77
2023/07/23 07:10:30;;;;;;;5.00;3.00;;;;;;;22.47;57.16;96672.59;108163;1279;22530;-76
2023/07/23 07:13:02;;;;;;;4.60;3.40;;;;;;;22.88;56.51;96677.95;108115;1272;23908;-77
2023/07/23 07:15:34;;;;;;;5.40;3.80;;;;;;;23.25;56.30;96668.23;108164;1279;22574;-77
2023/07/23 07:18:05;;;;;;;7.20;3.60;;;;;;;23.40;55.50;96670.30;108165;1276;25256;-76
2023/07/23 07:20:37;;;;;;;6.10;3.20;;;;;;;23.32;54.89;96668.20;108160;1279;22729;-76
2023/07/23 07:23:08;;;;;;;7.40;3.80;;;;;;;23.23;54.99;96663.10;108156;1279;22524;-77
2023/07/23 07:25:44;;;;;;;4.60;3.80;;;;;;;23.41;55.22;96663.17;108220;1276;22622;-77
2023/07/23 07:28:16;;;;;;;6.20;3.50;;;;;;;23.38;54.84;96658.89;108175;1279;22638;-76
2023/07/23 07:30:48;;;;;;;4.10;3.20;;;;;;;23.39;55.00;96657.13;108153;1279;22577;-76
2023/07/23 07:33:19;;;;;;;5.60;3.70;;;;;;;23.56;54.98;96656.27;108153;1271;25423;-76
2023/07/23 07:35:55;;;;;;;4.20;3.30;;;;;;;23.37;54.34;96656.15;108179;1272;22669;-76
2023/07/23 07:38:27;;;;;;;5.10;3.20;;;;;;;22.98;54.47;96657.36;108166;1272;22524;-76
2023/07/23 07:41:01;;;;;;;5.80;4.00;;;;;;;22.84;54.48;96659.34;108202;1279;22520;-76
2023/07/23 07:43:33;;;;;;;3.60;3.30;;;;;;;22.92;54.78;96660.74;108191;1279;25243;-77
2023/07/23 07:46:07;;;;;;;6.40;3.40;;;;;;;23.02;54.82;96658.92;108166;1279;22541;-76
2023/07/23 07:48:39;;;;;;;7.80;3.40;;;;;;;23.03;54.69;96655.92;108222;1279;22559;-77
2023/07/23 07:51:11;;;;;;;4.90;3.80;;;;;;;22.91;54.83;96655.77;108182;1279;25804;-76
2023/07/23 07:53:43;;;;;;;5.50;3.50;;;;;;;22.80;54.70;96658.16;108161;1279;22522;-76
2023/07/23 07:56:17;;;;;;;5.30;3.20;;;;;;;22.73;54.97;96654.38;108248;1272;22534;-77
2023/07/23 07:58:50;;;;;;;4.70;3.40;;;;;;;22.59;54.76;96656.58;108217;1272;22580;-77
2023/07/23 08:01:22;;;;;;;5.40;3.80;;;;;;;22.48;54.87;96654.56;108314;1276;22682;-76
2023/07/23 08:04:01;;;;;;;5.30;3.50;;;;;;;22.50;55.35;96661.54;108281;1279;22524;-77
2023/07/23 08:06:40;;;;;;;7.30;4.10;;;;;;;22.49;55.06;96659.23;108231;1272;25290;-77
2023/07/23 08:09:17;;;;;;;4.30;3.70;;;;;;;22.40;55.38;96660.03;108215;1271;25255;-76
2023/07/23 08:11:50;;;;;;;3.80;3.10;;;;;;;22.39;55.64;96668.66;108138;1279;25275;-76
2023/07/23 08:14:22;;;;;;;4.70;3.50;;;;;;;22.42;55.56;96666.26;108184;1279;22520;-76
2023/07/23 08:17:05;;;;;;;4.30;3.50;;;;;;;22.45;55.35;96665.61;108128;1279;22520;-76
2023/07/23 08:19:37;;;;;;;4.50;3.60;;;;;;;22.68;55.70;96663.16;108146;1279;22571;-76
2023/07/23 08:22:14;;;;;;;4.50;3.30;;;;;;;23.21;55.50;96661.83;108154;1261;24261;-77
2023/07/23 08:24:46;;;;;;;5.50;3.70;;;;;;;23.57;54.88;96656.81;108182;1279;22530;-77
2023/07/23 08:27:23;;;;;;;4.50;3.50;;;;;;;23.98;54.68;96651.47;108174;1279;22524;-77
2023/07/23 08:29:58;;;;;;;4.30;3.40;;;;;;;24.37;54.25;96647.79;108193;1279;23909;-77
2023/07/23 08:32:34;;;;;;;4.80;3.50;;;;;;;24.64;53.59;96644.42;108221;1272;22553;-76
2023/07/23 08:35:06;;;;;;;6.00;3.00;;;;;;;24.77;52.92;96644.42;108292;1279;22593;-76
2023/07/23 08:37:44;;;;;;;4.80;3.40;;;;;;;24.71;52.10;96642.11;108202;1279;22536;-77
2023/07/23 08:40:19;;;;;;;4.70;3.40;;;;;;;24.64;52.28;96639.08;108165;1277;23415;-76
2023/07/23 08:43:35;;;;;;;4.10;3.10;;;;;;;24.55;51.80;96638.35;108206;1279;24292;-77
2023/07/23 08:46:29;;;;;;;4.20;3.40;;;;;;;24.58;51.78;96643.27;108114;1279;24271;-76
2023/07/23 08:49:11;;;;;;;4.00;3.10;;;;;;;24.49;51.21;96643.00;108171;1279;24281;-76
2023/07/23 08:51:48;;;;;;;3.90;3.00;;;;;;;24.26;51.00;96645.20;108247;1279;22520;-76
2023/07/23 08:54:22;;;;;;;3.40;2.90;;;;;;;24.02;50.72;96641.93;108226;1279;22597;-77
2023/07/23 08:56:54;;;;;;;4.20;3.00;;;;;;;23.93;50.91;96643.27;108410;1279;25419;-77
2023/07/23 08:59:27;;;;;;;6.30;3.60;;;;;;;23.95;51.10;96641.67;108271;1272;22690;-77
2023/07/23 09:02:03;;;;;;;3.00;2.60;;;;;;;24.11;51.46;96642.08;108200;1279;22539;-77
2023/07/23 09:04:35;;;;;;;4.70;2.80;;;;;;;24.14;50.99;96642.42;108160;1279;22524;-77
2023/07/23 09:07:17;;;;;;;4.30;2.70;;;;;;;24.08;50.50;96647.44;108259;1279;22599;-77
2023/07/23 09:09:50;;;;;;;2.80;2.40;;;;;;;24.04;50.85;96643.11;108186;1276;22528;-76
2023/07/23 09:12:24;;;;;;;4.80;2.70;;;;;;;24.14;50.98;96642.58;108162;1271;22531;-77
2023/07/23 09:14:55;;;;;;;4.10;2.90;;;;;;;24.21;51.00;96644.37;108246;1272;22992;-76
2023/07/23 09:17:30;;;;;;;3.80;3.00;;;;;;;24.34;50.70;96640.85;108219;1271;23066;-77
2023/07/23 09:20:01;;;;;;;5.60;3.00;;;;;;;24.41;50.21;96640.80;108285;1272;25360;-76
2023/07/23 09:22:36;;;;;;;4.50;2.70;;;;;;;24.41;49.99;96638.02;108211;1276;22536;-76
2023/07/23 09:25:10;;;;;;;5.40;3.10;;;;;;;24.44;49.81;96644.86;108186;1279;22538;-76
2023/07/23 09:27:44;;;;;;;3.50;2.90;;;;;;;24.44;49.58;96637.66;108204;1272;22546;-76
2023/07/23 09:30:23;;;;;;;3.60;2.60;;;;;;;24.41;49.55;96638.87;108186;1279;22527;-77
2023/07/23 09:33:01;;;;;;;4.10;2.40;;;;;;;24.37;49.33;96632.71;108228;1277;22534;-76
2023/07/23 09:35:33;;;;;;;3.60;2.90;;;;;;;24.38;49.29;96633.10;108196;1272;26573;-76
2023/07/23 09:38:10;;;;;;;2.80;2.20;;;;;;;24.41;48.70;96629.96;108214;1276;22535;-76
2023/07/23 09:40:45;;;;;;;3.50;2.40;;;;;;;24.37;48.00;96629.54;108212;1279;22530;-76
2023/07/23 09:43:17;;;;;;;3.40;2.50;;;;;;;24.27;46.88;96619.45;108183;1279;22964;-77
2023/07/23 09:45:49;;;;;;;3.40;2.40;;;;;;;24.11;46.84;96622.72;108215;1272;26503;-76
2023/07/23 09:48:21;;;;;;;5.10;2.50;;;;;;;24.15;47.47;96625.31;108226;1279;22526;-76
2023/07/23 09:51:01;;;;;;;3.20;2.50;;;;;;;24.34;47.65;96620.17;108177;1279;22520;-77
2023/07/23 09:53:34;;;;;;;3.50;2.70;;;;;;;24.55;47.84;96617.52;108165;1279;22633;-76
2023/07/23 09:56:11;;;;;;;4.20;2.50;;;;;;;24.66;46.99;96616.42;108224;1260;24222;-75
2023/07/23 09:58:50;;;;;;;4.00;2.50;;;;;;;24.72;46.68;96614.54;108254;1279;22544;-77
2023/07/23 10:01:23;;;;;;;2.30;2.10;;;;;;;24.72;46.13;96615.33;108262;1279;22533;-77
2023/07/23 10:03:59;;;;;;;2.90;2.40;;;;;;;24.72;46.22;96613.77;108234;1279;22552;-76
2023/07/23 10:06:32;;;;;;;4.10;2.70;;;;;;;24.67;46.03;96607.29;108237;1279;22529;-76
2023/07/23 10:09:04;;;;;;;5.20;2.80;;;;;;;24.49;45.76;96608.23;108220;1279;22534;-76
2023/07/23 10:11:35;;;;;;;3.20;2.40;;;;;;;24.31;45.66;96610.46;108172;1276;25381;-76
2023/07/23 10:14:10;;;;;;;3.10;2.30;;;;;;;24.22;45.89;96607.16;108157;1276;22570;-77
2023/07/23 10:16:47;;;;;;;2.90;2.00;;;;;;;24.27;45.30;96603.90;108208;1279;22713;-77
2023/07/23 10:19:22;;;;;;;4.20;2.70;;;;;;;24.22;45.44;96604.67;108243;1279;22536;-76
2023/07/23 10:21:54;;;;;;;5.50;2.30;;;;;;;24.35;45.88;96609.14;108210;1272;24282;-76
2023/07/23 10:24:42;;;;;;;3.40;2.70;;;;;;;24.51;45.68;96606.41;108177;1279;23007;-77
2023/07/23 10:27:16;;;;;;;3.60;2.40;;;;;;;24.52;45.54;96603.94;108276;1276;22633;-76
2023/07/23 10:30:20;;;;;;;3.20;2.30;;;;;;;24.61;45.79;96598.92;108287;1275;22520;-77
2023/07/23 10:33:30;;;;;;;3.10;2.20;;;;;;;24.48;45.47;96599.39;108228;1279;24037;-77
2023/07/23 10:36:04;;;;;;;3.00;2.50;;;;;;;24.49;45.79;96604.75;108235;1279;22629;-77
2023/07/23 10:38:36;;;;;;;4.40;2.10;;;;;;;24.59;45.04;96601.14;108217;1276;22585;-77
2023/07/23 10:41:09;;;;;;;3.60;2.40;;;;;;;24.59;44.09;96602.38;108241;1272;22547;-77
2023/07/23 10:43:48;;;;;;;4.60;2.30;;;;;;;24.66;44.24;96599.84;108227;1279;24742;-77
2023/07/23 10:46:22;;;;;;;5.10;2.40;;;;;;;24.65;44.01;96600.20;108253;1272;22607;-77
2023/07/23 10:48:55;;;;;;;4.60;2.30;;;;;;;24.43;43.76;96598.32;108235;1279;22536;-77
2023/07/23 10:51:27;;;;;;;3.00;2.40;;;;;;;24.31;44.38;96594.52;108199;1278;22550;-77
2023/07/23 10:54:02;;;;;;;2.60;2.30;;;;;;;24.22;44.65;96595.55;108208;1271;25352;-77
2023/07/23 10:56:36;;;;;;;8.20;2.90;;;;;;;24.12;44.54;96591.46;108242;1279;22525;-77
2023/07/23 10:59:14;;;;;;;4.20;2.40;;;;;;;24.15;44.64;96590.34;108290;1279;24221;-77
2023/07/23 11:01:49;;;;;;;2.90;2.10;;;;;;;24.43;44.91;96588.71;108337;1279;26455;-77
2023/07/23 11:04:26;;;;;;;2.40;2.10;;;;;;;24.56;44.03;96583.23;108326;1279;22540;-77
2023/07/23 11:07:02;;;;;;;4.20;2.40;;;;;;;24.64;44.23;96588.74;108320;1279;22543;-77
2023/07/23 11:09:37;;;;;;;4.00;2.50;;;;;;;24.62;43.80;96580.96;108245;1277;22510;-77
2023/07/23 11:12:15;;;;;;;3.00;2.30;;;;;;;24.53;43.80;96581.02;108300;1279;22440;-77
2023/07/23 11:14:48;;;;;;;3.70;2.50;;;;;;;24.50;43.87;96586.80;108219;1279;22524;-77
2023/07/23 11:17:25;;;;;;;3.40;2.20;;;;;;;24.45;43.73;96582.00;108240;1279;24434;-77
2023/07/23 11:19:57;;;;;;;3.30;2.30;;;;;;;24.35;43.29;96586.69;108177;1272;22547;-77
2023/07/23 11:22:28;;;;;;;2.30;2.00;;;;;;;24.25;43.13;96581.66;108218;1279;25890;-77
2023/07/23 11:25:01;;;;;;;2.60;2.10;;;;;;;24.18;42.66;96575.14;108213;1272;22520;-77
2023/07/23 11:27:33;;;;;;;3.80;2.60;;;;;;;24.11;42.68;96576.44;108238;1279;22557;-77
2023/07/23 11:30:09;;;;;;;3.40;2.60;;;;;;;24.09;42.65;96570.30;108156;1279;24247;-77
2023/07/23 11:32:48;;;;;;;3.20;2.70;;;;;;;24.02;43.00;96568.56;108232;1279;22550;-77
2023/07/23 11:35:23;;;;;;;4.00;2.50;;;;;;;24.09;43.26;96567.81;108243;1273;22522;-77
2023/07/23 11:37:54;;;;;;;3.30;2.40;;;;;;;24.38;43.73;96567.66;108199;1272;22950;-77
2023/07/23 11:40:26;;;;;;;3.90;2.30;;;;;;;24.66;43.59;96560.09;108249;1279;22565;-77
2023/07/23 11:43:06;;;;;;;3.10;2.40;;;;;;;24.88;43.66;96552.36;108198;1272;24941;-76
2023/07/23 11:45:51;;;;;;;2.40;2.20;;;;;;;25.04;43.28;96552.93;108246;1279;22567;-77
2023/07/23 11:48:24;;;;;;;3.70;2.60;;;;;;;25.05;42.68;96552.30;108225;1279;22639;-76
2023/07/23 11:50:55;;;;;;;3.40;2.70;;;;;;;24.98;42.20;96543.85;108275;1277;22538;-77
2023/07/23 11:53:38;;;;;;;2.80;2.20;;;;;;;24.98;42.63;96544.95;108196;1271;22520;-77